sensor_id;sensor_type;location;lat;lon;timestamp;P1;durP1;ratioP1;P2;durP2;ratioP2
19084;SDS011;9675;51.538;6.728;2023-03-08T00:01:34;0.57;;;0.57;;
19084;SDS011;9675;51.538;6.728;2023-03-08T00:04:01;0.03;;;0.03;;
19084;SDS011;9675;51.538;6.728;2023-03-08T00:06:28;0.20;;;0.20;;
19084;SDS011;9675;51.538;6.728;2023-03-08T00:08:55;1.53;;;0.70;;
19084;SDS011;9675;51.538;6.728;2023-03-08T00:11:26;0.07;;;0.07;;
19084;SDS011;9675;51.538;6.728;2023-03-08T00:13:54;0.30;;;0.30;;
19084;SDS011;9675;51.538;6.728;2023-03-08T00:16:22;0.00;;;0.00;;
19084;SDS011;9675;51.538;6.728;2023-03-08T00:18:49;0.00;;;0.00;;
19084;SDS011;9675;51.538;6.728;2023-03-08T00:21:17;0.00;;;0.00;;
19084;SDS011;9675;51.538;6.728;2023-03-08T00:23:44;0.00;;;0.00;;
19084;SDS011;9675;51.538;6.728;2023-03-08T00:26:11;0.23;;;0.23;;
19084;SDS011;9675;51.538;6.728;2023-03-08T00:28:40;0.10;;;0.10;;
19084;SDS011;9675;51.538;6.728;2023-03-08T00:31:08;0.03;;;0.03;;
19084;SDS011;9675;51.538;6.728;2023-03-08T00:33:38;0.00;;;0.00;;
19084;SDS011;9675;51.538;6.728;2023-03-08T00:36:06;0.00;;;0.00;;
19084;SDS011;9675;51.538;6.728;2023-03-08T00:38:38;0.00;;;0.00;;
19084;SDS011;9675;51.538;6.728;2023-03-08T00:41:06;0.00;;;0.00;;
19084;SDS011;9675;51.538;6.728;2023-03-08T00:43:33;0.63;;;0.40;;
19084;SDS011;9675;51.538;6.728;2023-03-08T00:46:01;0.10;;;0.10;;
19084;SDS011;9675;51.538;6.728;2023-03-08T00:48:29;0.57;;;0.20;;
19084;SDS011;9675;51.538;6.728;2023-03-08T00:50:56;0.40;;;0.40;;
19084;SDS011;9675;51.538;6.728;2023-03-08T00:53:23;0.50;;;0.50;;
19084;SDS011;9675;51.538;6.728;2023-03-08T00:55:51;0.93;;;0.27;;
19084;SDS011;9675;51.538;6.728;2023-03-08T00:58:20;0.33;;;0.20;;
19084;SDS011;9675;51.538;6.728;2023-03-08T01:00:48;0.60;;;0.60;;
19084;SDS011;9675;51.538;6.728;2023-03-08T01:03:17;0.03;;;0.03;;
19084;SDS011;9675;51.538;6.728;2023-03-08T01:05:47;0.23;;;0.23;;
19084;SDS011;9675;51.538;6.728;2023-03-08T01:08:16;0.50;;;0.50;;
19084;SDS011;9675;51.538;6.728;2023-03-08T01:10:45;1.03;;;1.03;;
19084;SDS011;9675;51.538;6.728;2023-03-08T01:13:13;1.37;;;1.27;;
19084;SDS011;9675;51.538;6.728;2023-03-08T01:15:41;0.20;;;0.20;;
19084;SDS011;9675;51.538;6.728;2023-03-08T01:18:09;1.50;;;1.30;;
19084;SDS011;9675;51.538;6.728;2023-03-08T01:20:38;0.23;;;0.23;;
19084;SDS011;9675;51.538;6.728;2023-03-08T01:23:05;0.00;;;0.00;;
19084;SDS011;9675;51.538;6.728;2023-03-08T01:25:32;0.37;;;0.37;;
19084;SDS011;9675;51.538;6.728;2023-03-08T01:27:59;0.07;;;0.07;;
19084;SDS011;9675;51.538;6.728;2023-03-08T01:30:27;0.00;;;0.00;;
19084;SDS011;9675;51.538;6.728;2023-03-08T01:32:54;1.03;;;0.53;;
19084;SDS011;9675;51.538;6.728;2023-03-08T01:35:21;0.30;;;0.30;;
19084;SDS011;9675;51.538;6.728;2023-03-08T01:37:50;0.00;;;0.00;;
19084;SDS011;9675;51.538;6.728;2023-03-08T01:40:18;0.30;;;0.30;;
19084;SDS011;9675;51.538;6.728;2023-03-08T01:42:46;0.40;;;0.40;;
19084;SDS011;9675;51.538;6.728;2023-03-08T01:48:32;0.00;;;0.00;;
19084;SDS011;9675;51.538;6.728;2023-03-08T01:51:06;0.37;;;0.37;;
19084;SDS011;9675;51.538;6.728;2023-03-08T01:53:39;2.00;;;0.77;;
19084;SDS011;9675;51.538;6.728;2023-03-08T01:56:08;0.93;;;0.43;;
19084;SDS011;9675;51.538;6.728;2023-03-08T01:58:39;7.30;;;2.73;;
19084;SDS011;9675;51.538;6.728;2023-03-08T02:01:08;3.97;;;2.27;;
19084;SDS011;9675;51.538;6.728;2023-03-08T02:03:36;7.33;;;2.70;;
19084;SDS011;9675;51.538;6.728;2023-03-08T02:06:03;7.63;;;3.33;;
19084;SDS011;9675;51.538;6.728;2023-03-08T02:08:31;5.20;;;2.63;;
19084;SDS011;9675;51.538;6.728;2023-03-08T02:11:00;6.47;;;2.67;;
19084;SDS011;9675;51.538;6.728;2023-03-08T02:13:27;10.03;;;2.77;;
19084;SDS011;9675;51.538;6.728;2023-03-08T02:15:56;5.00;;;2.67;;
19084;SDS011;9675;51.538;6.728;2023-03-08T02:18:27;3.70;;;2.10;;
19084;SDS011;9675;51.538;6.728;2023-03-08T02:20:54;4.77;;;2.23;;
19084;SDS011;9675;51.538;6.728;2023-03-08T02:23:23;7.70;;;2.70;;
19084;SDS011;9675;51.538;6.728;2023-03-08T02:25:52;5.67;;;2.93;;
19084;SDS011;9675;51.538;6.728;2023-03-08T02:28:21;6.53;;;3.77;;
19084;SDS011;9675;51.538;6.728;2023-03-08T02:30:51;7.80;;;3.50;;
19084;SDS011;9675;51.538;6.728;2023-03-08T02:33:20;5.97;;;3.43;;
19084;SDS011;9675;51.538;6.728;2023-03-08T02:35:48;9.27;;;4.33;;
19084;SDS011;9675;51.538;6.728;2023-03-08T02:38:16;6.63;;;3.10;;
19084;SDS011;9675;51.538;6.728;2023-03-08T02:40:47;6.63;;;3.23;;
19084;SDS011;9675;51.538;6.728;2023-03-08T02:43:15;6.43;;;3.37;;
19084;SDS011;9675;51.538;6.728;2023-03-08T02:45:43;5.90;;;3.23;;
19084;SDS011;9675;51.538;6.728;2023-03-08T02:48:11;4.57;;;2.27;;
19084;SDS011;9675;51.538;6.728;2023-03-08T02:50:39;7.33;;;3.40;;
19084;SDS011;9675;51.538;6.728;2023-03-08T02:53:06;7.43;;;3.50;;
19084;SDS011;9675;51.538;6.728;2023-03-08T02:55:34;4.87;;;2.67;;
19084;SDS011;9675;51.538;6.728;2023-03-08T02:58:03;4.87;;;2.77;;
19084;SDS011;9675;51.538;6.728;2023-03-08T03:00:31;4.83;;;2.60;;
19084;SDS011;9675;51.538;6.728;2023-03-08T03:02:59;6.00;;;2.50;;
19084;SDS011;9675;51.538;6.728;2023-03-08T03:05:26;4.80;;;2.93;;
19084;SDS011;9675;51.538;6.728;2023-03-08T03:07:53;5.27;;;3.07;;
19084;SDS011;9675;51.538;6.728;2023-03-08T03:10:22;7.47;;;3.70;;
19084;SDS011;9675;51.538;6.728;2023-03-08T03:12:50;7.30;;;3.97;;
19084;SDS011;9675;51.538;6.728;2023-03-08T03:15:19;6.60;;;3.70;;
19084;SDS011;9675;51.538;6.728;2023-03-08T03:17:46;9.83;;;3.63;;
19084;SDS011;9675;51.538;6.728;2023-03-08T03:20:13;6.70;;;4.37;;
19084;SDS011;9675;51.538;6.728;2023-03-08T03:22:40;9.00;;;4.40;;
19084;SDS011;9675;51.538;6.728;2023-03-08T03:25:09;6.50;;;3.23;;
19084;SDS011;9675;51.538;6.728;2023-03-08T03:27:36;10.70;;;4.17;;
19084;SDS011;9675;51.538;6.728;2023-03-08T03:30:03;10.83;;;4.00;;
19084;SDS011;9675;51.538;6.728;2023-03-08T03:32:34;9.57;;;4.80;;
19084;SDS011;9675;51.538;6.728;2023-03-08T03:35:02;8.67;;;4.23;;
19084;SDS011;9675;51.538;6.728;2023-03-08T03:37:29;8.93;;;3.97;;
19084;SDS011;9675;51.538;6.728;2023-03-08T03:39:58;6.03;;;3.40;;
19084;SDS011;9675;51.538;6.728;2023-03-08T03:42:25;6.77;;;2.93;;
19084;SDS011;9675;51.538;6.728;2023-03-08T03:44:52;9.83;;;3.13;;
19084;SDS011;9675;51.538;6.728;2023-03-08T03:47:19;7.00;;;3.00;;
19084;SDS011;9675;51.538;6.728;2023-03-08T03:49:48;11.90;;;2.97;;
19084;SDS011;9675;51.538;6.728;2023-03-08T03:52:14;5.37;;;3.00;;
19084;SDS011;9675;51.538;6.728;2023-03-08T03:54:41;9.50;;;4.07;;
19084;SDS011;9675;51.538;6.728;2023-03-08T03:57:08;7.73;;;3.97;;
19084;SDS011;9675;51.538;6.728;2023-03-08T03:59:35;7.40;;;3.60;;
19084;SDS011;9675;51.538;6.728;2023-03-08T04:02:02;6.40;;;2.83;;
19084;SDS011;9675;51.538;6.728;2023-03-08T04:04:29;10.07;;;4.87;;
19084;SDS011;9675;51.538;6.728;2023-03-08T04:06:58;9.60;;;5.07;;
19084;SDS011;9675;51.538;6.728;2023-03-08T04:09:25;11.10;;;5.90;;
19084;SDS011;9675;51.538;6.728;2023-03-08T04:11:52;10.17;;;5.50;;
19084;SDS011;9675;51.538;6.728;2023-03-08T04:14:19;11.40;;;4.63;;
19084;SDS011;9675;51.538;6.728;2023-03-08T04:16:46;6.47;;;3.73;;
19084;SDS011;9675;51.538;6.728;2023-03-08T04:19:13;13.70;;;6.90;;
19084;SDS011;9675;51.538;6.728;2023-03-08T04:21:40;15.73;;;5.47;;
19084;SDS011;9675;51.538;6.728;2023-03-08T04:24:08;7.67;;;4.17;;
19084;SDS011;9675;51.538;6.728;2023-03-08T04:26:35;8.30;;;4.10;;
19084;SDS011;9675;51.538;6.728;2023-03-08T04:29:02;6.80;;;3.77;;
19084;SDS011;9675;51.538;6.728;2023-03-08T04:31:30;9.57;;;4.67;;
19084;SDS011;9675;51.538;6.728;2023-03-08T04:34:01;6.37;;;3.57;;
19084;SDS011;9675;51.538;6.728;2023-03-08T04:36:28;8.63;;;4.13;;
19084;SDS011;9675;51.538;6.728;2023-03-08T04:38:56;12.30;;;5.60;;
19084;SDS011;9675;51.538;6.728;2023-03-08T04:41:25;14.93;;;6.30;;
19084;SDS011;9675;51.538;6.728;2023-03-08T04:43:53;10.67;;;5.63;;
19084;SDS011;9675;51.538;6.728;2023-03-08T04:46:23;13.00;;;5.57;;
19084;SDS011;9675;51.538;6.728;2023-03-08T04:48:52;8.00;;;4.20;;
19084;SDS011;9675;51.538;6.728;2023-03-08T04:51:20;11.37;;;4.27;;
19084;SDS011;9675;51.538;6.728;2023-03-08T04:53:51;6.10;;;3.27;;
19084;SDS011;9675;51.538;6.728;2023-03-08T04:56:18;8.80;;;3.83;;
19084;SDS011;9675;51.538;6.728;2023-03-08T04:58:46;9.97;;;3.83;;
19084;SDS011;9675;51.538;6.728;2023-03-08T05:01:14;9.50;;;4.27;;
19084;SDS011;9675;51.538;6.728;2023-03-08T05:03:43;6.97;;;3.77;;
19084;SDS011;9675;51.538;6.728;2023-03-08T05:06:13;10.83;;;4.37;;
19084;SDS011;9675;51.538;6.728;2023-03-08T05:08:40;5.83;;;3.07;;
19084;SDS011;9675;51.538;6.728;2023-03-08T05:11:08;5.87;;;3.33;;
19084;SDS011;9675;51.538;6.728;2023-03-08T05:13:38;14.57;;;5.10;;
19084;SDS011;9675;51.538;6.728;2023-03-08T05:16:07;14.53;;;4.57;;
19084;SDS011;9675;51.538;6.728;2023-03-08T05:18:34;10.03;;;4.93;;
19084;SDS011;9675;51.538;6.728;2023-03-08T05:21:02;10.53;;;4.20;;
19084;SDS011;9675;51.538;6.728;2023-03-08T05:23:32;8.97;;;4.70;;
19084;SDS011;9675;51.538;6.728;2023-03-08T05:26:00;15.07;;;6.07;;
19084;SDS011;9675;51.538;6.728;2023-03-08T05:28:30;10.50;;;4.57;;
19084;SDS011;9675;51.538;6.728;2023-03-08T05:31:01;9.40;;;4.50;;
19084;SDS011;9675;51.538;6.728;2023-03-08T05:33:31;10.80;;;5.30;;
19084;SDS011;9675;51.538;6.728;2023-03-08T05:35:59;11.47;;;5.50;;
19084;SDS011;9675;51.538;6.728;2023-03-08T05:38:27;12.57;;;5.60;;
19084;SDS011;9675;51.538;6.728;2023-03-08T05:40:58;7.27;;;3.77;;
19084;SDS011;9675;51.538;6.728;2023-03-08T05:43:26;9.87;;;4.47;;
19084;SDS011;9675;51.538;6.728;2023-03-08T05:45:54;17.83;;;6.20;;
19084;SDS011;9675;51.538;6.728;2023-03-08T05:48:23;8.00;;;4.23;;
19084;SDS011;9675;51.538;6.728;2023-03-08T05:50:52;11.03;;;5.27;;
19084;SDS011;9675;51.538;6.728;2023-03-08T05:53:19;14.97;;;5.27;;
19084;SDS011;9675;51.538;6.728;2023-03-08T05:55:47;11.70;;;5.43;;
19084;SDS011;9675;51.538;6.728;2023-03-08T05:58:15;11.57;;;4.67;;
19084;SDS011;9675;51.538;6.728;2023-03-08T06:00:42;9.13;;;4.67;;
19084;SDS011;9675;51.538;6.728;2023-03-08T06:03:09;13.53;;;5.97;;
19084;SDS011;9675;51.538;6.728;2023-03-08T06:05:36;12.67;;;5.87;;
19084;SDS011;9675;51.538;6.728;2023-03-08T06:08:05;14.27;;;5.27;;
19084;SDS011;9675;51.538;6.728;2023-03-08T06:10:32;17.20;;;6.33;;
19084;SDS011;9675;51.538;6.728;2023-03-08T06:12:59;10.40;;;6.03;;
19084;SDS011;9675;51.538;6.728;2023-03-08T06:15:27;12.37;;;5.33;;
19084;SDS011;9675;51.538;6.728;2023-03-08T06:17:54;13.50;;;5.40;;
19084;SDS011;9675;51.538;6.728;2023-03-08T06:20:21;11.33;;;5.30;;
19084;SDS011;9675;51.538;6.728;2023-03-08T06:22:48;16.87;;;5.47;;
19084;SDS011;9675;51.538;6.728;2023-03-08T06:25:16;16.17;;;5.50;;
19084;SDS011;9675;51.538;6.728;2023-03-08T06:27:43;10.30;;;4.77;;
19084;SDS011;9675;51.538;6.728;2023-03-08T06:30:11;15.20;;;6.40;;
19084;SDS011;9675;51.538;6.728;2023-03-08T06:32:38;23.00;;;8.17;;
19084;SDS011;9675;51.538;6.728;2023-03-08T06:35:07;16.77;;;5.90;;
19084;SDS011;9675;51.538;6.728;2023-03-08T06:37:35;21.90;;;6.83;;
19084;SDS011;9675;51.538;6.728;2023-03-08T06:40:02;17.87;;;5.90;;
19084;SDS011;9675;51.538;6.728;2023-03-08T06:42:34;6.43;;;3.47;;
19084;SDS011;9675;51.538;6.728;2023-03-08T06:45:01;12.03;;;5.63;;
19084;SDS011;9675;51.538;6.728;2023-03-08T06:47:28;13.83;;;4.63;;
19084;SDS011;9675;51.538;6.728;2023-03-08T06:49:56;0.60;;;0.60;;
19084;SDS011;9675;51.538;6.728;2023-03-08T06:52:23;0.43;;;0.37;;
19084;SDS011;9675;51.538;6.728;2023-03-08T06:54:50;3.63;;;0.97;;
19084;SDS011;9675;51.538;6.728;2023-03-08T06:57:17;6.40;;;2.43;;
19084;SDS011;9675;51.538;6.728;2023-03-08T06:59:45;0.10;;;0.10;;
19084;SDS011;9675;51.538;6.728;2023-03-08T07:02:12;0.00;;;0.00;;
19084;SDS011;9675;51.538;6.728;2023-03-08T07:04:39;0.53;;;0.53;;
19084;SDS011;9675;51.538;6.728;2023-03-08T07:07:06;3.70;;;1.30;;
19084;SDS011;9675;51.538;6.728;2023-03-08T07:09:33;0.00;;;0.00;;
19084;SDS011;9675;51.538;6.728;2023-03-08T07:12:00;0.00;;;0.00;;
19084;SDS011;9675;51.538;6.728;2023-03-08T07:14:27;0.50;;;0.50;;
19084;SDS011;9675;51.538;6.728;2023-03-08T07:16:56;1.20;;;1.07;;
19084;SDS011;9675;51.538;6.728;2023-03-08T07:19:23;0.70;;;0.70;;
19084;SDS011;9675;51.538;6.728;2023-03-08T07:21:50;0.07;;;0.07;;
19084;SDS011;9675;51.538;6.728;2023-03-08T07:24:18;0.10;;;0.10;;
19084;SDS011;9675;51.538;6.728;2023-03-08T07:26:44;0.00;;;0.00;;
19084;SDS011;9675;51.538;6.728;2023-03-08T07:29:11;0.00;;;0.00;;
19084;SDS011;9675;51.538;6.728;2023-03-08T07:31:38;0.20;;;0.20;;
19084;SDS011;9675;51.538;6.728;2023-03-08T07:34:07;0.00;;;0.00;;
19084;SDS011;9675;51.538;6.728;2023-03-08T07:36:34;0.27;;;0.27;;
19084;SDS011;9675;51.538;6.728;2023-03-08T07:39:02;0.53;;;0.53;;
19084;SDS011;9675;51.538;6.728;2023-03-08T07:41:29;0.00;;;0.00;;
19084;SDS011;9675;51.538;6.728;2023-03-08T07:43:57;0.00;;;0.00;;
19084;SDS011;9675;51.538;6.728;2023-03-08T07:46:24;0.00;;;0.00;;
19084;SDS011;9675;51.538;6.728;2023-03-08T07:48:52;0.07;;;0.07;;
19084;SDS011;9675;51.538;6.728;2023-03-08T07:51:21;0.63;;;0.63;;
19084;SDS011;9675;51.538;6.728;2023-03-08T07:53:49;0.00;;;0.00;;
19084;SDS011;9675;51.538;6.728;2023-03-08T07:56:16;0.37;;;0.37;;
19084;SDS011;9675;51.538;6.728;2023-03-08T07:58:43;2.33;;;1.50;;
19084;SDS011;9675;51.538;6.728;2023-03-08T08:01:11;1.50;;;1.40;;
19084;SDS011;9675;51.538;6.728;2023-03-08T08:03:39;0.00;;;0.00;;
19084;SDS011;9675;51.538;6.728;2023-03-08T08:06:07;0.20;;;0.20;;
19084;SDS011;9675;51.538;6.728;2023-03-08T08:08:36;0.20;;;0.20;;
19084;SDS011;9675;51.538;6.728;2023-03-08T08:11:08;1.07;;;0.97;;
19084;SDS011;9675;51.538;6.728;2023-03-08T08:13:37;0.10;;;0.10;;
19084;SDS011;9675;51.538;6.728;2023-03-08T08:16:04;0.00;;;0.00;;
19084;SDS011;9675;51.538;6.728;2023-03-08T08:18:32;1.70;;;0.67;;
19084;SDS011;9675;51.538;6.728;2023-03-08T08:21:01;0.00;;;0.00;;
19084;SDS011;9675;51.538;6.728;2023-03-08T08:23:30;0.00;;;0.00;;
19084;SDS011;9675;51.538;6.728;2023-03-08T08:26:02;0.00;;;0.00;;
19084;SDS011;9675;51.538;6.728;2023-03-08T08:28:31;0.00;;;0.00;;
19084;SDS011;9675;51.538;6.728;2023-03-08T08:30:59;0.20;;;0.20;;
19084;SDS011;9675;51.538;6.728;2023-03-08T08:33:29;0.00;;;0.00;;
19084;SDS011;9675;51.538;6.728;2023-03-08T08:35:57;0.00;;;0.00;;
19084;SDS011;9675;51.538;6.728;2023-03-08T08:38:25;0.00;;;0.00;;
19084;SDS011;9675;51.538;6.728;2023-03-08T08:40:52;0.30;;;0.30;;
19084;SDS011;9675;51.538;6.728;2023-03-08T08:43:20;0.13;;;0.13;;
19084;SDS011;9675;51.538;6.728;2023-03-08T08:45:48;0.13;;;0.13;;
19084;SDS011;9675;51.538;6.728;2023-03-08T08:48:20;0.00;;;0.00;;
19084;SDS011;9675;51.538;6.728;2023-03-08T08:50:48;0.00;;;0.00;;
19084;SDS011;9675;51.538;6.728;2023-03-08T08:53:16;0.03;;;0.03;;
19084;SDS011;9675;51.538;6.728;2023-03-08T08:55:43;0.00;;;0.00;;
19084;SDS011;9675;51.538;6.728;2023-03-08T08:58:10;0.70;;;0.60;;
19084;SDS011;9675;51.538;6.728;2023-03-08T09:00:39;0.20;;;0.20;;
19084;SDS011;9675;51.538;6.728;2023-03-08T09:03:07;0.00;;;0.00;;
19084;SDS011;9675;51.538;6.728;2023-03-08T09:05:36;0.00;;;0.00;;
19084;SDS011;9675;51.538;6.728;2023-03-08T09:08:05;0.20;;;0.20;;
19084;SDS011;9675;51.538;6.728;2023-03-08T09:10:33;0.20;;;0.20;;
19084;SDS011;9675;51.538;6.728;2023-03-08T09:13:04;1.90;;;1.17;;
19084;SDS011;9675;51.538;6.728;2023-03-08T09:15:33;16.70;;;6.83;;
19084;SDS011;9675;51.538;6.728;2023-03-08T09:18:02;3.33;;;1.67;;
19084;SDS011;9675;51.538;6.728;2023-03-08T09:20:30;3.00;;;2.20;;
19084;SDS011;9675;51.538;6.728;2023-03-08T09:22:57;3.47;;;2.20;;
19084;SDS011;9675;51.538;6.728;2023-03-08T09:25:24;0.13;;;0.13;;
19084;SDS011;9675;51.538;6.728;2023-03-08T09:27:51;0.20;;;0.20;;
19084;SDS011;9675;51.538;6.728;2023-03-08T09:30:21;0.67;;;0.67;;
19084;SDS011;9675;51.538;6.728;2023-03-08T09:32:48;0.93;;;0.57;;
19084;SDS011;9675;51.538;6.728;2023-03-08T09:35:16;0.00;;;0.00;;
19084;SDS011;9675;51.538;6.728;2023-03-08T09:37:43;0.00;;;0.00;;
19084;SDS011;9675;51.538;6.728;2023-03-08T09:40:16;2.10;;;0.43;;
19084;SDS011;9675;51.538;6.728;2023-03-08T09:42:46;0.00;;;0.00;;
19084;SDS011;9675;51.538;6.728;2023-03-08T09:45:17;0.00;;;0.00;;
19084;SDS011;9675;51.538;6.728;2023-03-08T09:47:50;0.10;;;0.10;;
19084;SDS011;9675;51.538;6.728;2023-03-08T09:50:43;0.10;;;0.10;;
19084;SDS011;9675;51.538;6.728;2023-03-08T09:53:22;0.00;;;0.00;;
19084;SDS011;9675;51.538;6.728;2023-03-08T09:55:57;0.00;;;0.00;;
19084;SDS011;9675;51.538;6.728;2023-03-08T09:58:31;0.00;;;0.00;;
19084;SDS011;9675;51.538;6.728;2023-03-08T10:01:11;0.00;;;0.00;;
19084;SDS011;9675;51.538;6.728;2023-03-08T10:04:05;0.00;;;0.00;;
19084;SDS011;9675;51.538;6.728;2023-03-08T10:07:07;0.00;;;0.00;;
19084;SDS011;9675;51.538;6.728;2023-03-08T10:09:55;0.00;;;0.00;;
19084;SDS011;9675;51.538;6.728;2023-03-08T10:12:41;0.00;;;0.00;;
19084;SDS011;9675;51.538;6.728;2023-03-08T10:15:24;0.00;;;0.00;;
19084;SDS011;9675;51.538;6.728;2023-03-08T10:17:56;0.00;;;0.00;;
19084;SDS011;9675;51.538;6.728;2023-03-08T10:20:31;0.10;;;0.10;;
19084;SDS011;9675;51.538;6.728;2023-03-08T10:23:05;0.00;;;0.00;;
19084;SDS011;9675;51.538;6.728;2023-03-08T10:25:40;0.50;;;0.50;;
19084;SDS011;9675;51.538;6.728;2023-03-08T10:28:10;0.00;;;0.00;;
19084;SDS011;9675;51.538;6.728;2023-03-08T10:30:41;0.00;;;0.00;;
19084;SDS011;9675;51.538;6.728;2023-03-08T10:33:13;0.00;;;0.00;;
19084;SDS011;9675;51.538;6.728;2023-03-08T10:35:52;0.00;;;0.00;;
19084;SDS011;9675;51.538;6.728;2023-03-08T10:38:25;0.00;;;0.00;;
19084;SDS011;9675;51.538;6.728;2023-03-08T10:40:59;0.00;;;0.00;;
19084;SDS011;9675;51.538;6.728;2023-03-08T10:43:29;0.03;;;0.03;;
19084;SDS011;9675;51.538;6.728;2023-03-08T10:46:02;0.00;;;0.00;;
19084;SDS011;9675;51.538;6.728;2023-03-08T10:48:31;0.00;;;0.00;;
19084;SDS011;9675;51.538;6.728;2023-03-08T10:50:59;0.17;;;0.17;;
19084;SDS011;9675;51.538;6.728;2023-03-08T10:53:29;0.00;;;0.00;;
19084;SDS011;9675;51.538;6.728;2023-03-08T10:55:58;0.10;;;0.10;;
19084;SDS011;9675;51.538;6.728;2023-03-08T10:58:28;0.10;;;0.10;;
19084;SDS011;9675;51.538;6.728;2023-03-08T11:01:00;0.00;;;0.00;;
19084;SDS011;9675;51.538;6.728;2023-03-08T11:03:31;0.00;;;0.00;;
19084;SDS011;9675;51.538;6.728;2023-03-08T11:05:59;0.00;;;0.00;;
19084;SDS011;9675;51.538;6.728;2023-03-08T11:08:31;0.00;;;0.00;;
19084;SDS011;9675;51.538;6.728;2023-03-08T11:11:02;0.00;;;0.00;;
19084;SDS011;9675;51.538;6.728;2023-03-08T11:13:36;0.00;;;0.00;;
19084;SDS011;9675;51.538;6.728;2023-03-08T11:16:20;0.00;;;0.00;;
19084;SDS011;9675;51.538;6.728;2023-03-08T11:19:06;0.10;;;0.10;;
19084;SDS011;9675;51.538;6.728;2023-03-08T11:21:49;0.00;;;0.00;;
19084;SDS011;9675;51.538;6.728;2023-03-08T11:24:32;0.67;;;0.67;;
19084;SDS011;9675;51.538;6.728;2023-03-08T11:27:20;0.20;;;0.20;;
19084;SDS011;9675;51.538;6.728;2023-03-08T11:30:08;0.30;;;0.30;;
19084;SDS011;9675;51.538;6.728;2023-03-08T11:32:53;0.30;;;0.30;;
19084;SDS011;9675;51.538;6.728;2023-03-08T11:35:47;0.10;;;0.10;;
19084;SDS011;9675;51.538;6.728;2023-03-08T11:38:28;0.23;;;0.23;;
19084;SDS011;9675;51.538;6.728;2023-03-08T11:41:00;0.00;;;0.00;;
19084;SDS011;9675;51.538;6.728;2023-03-08T11:43:47;0.87;;;0.87;;
19084;SDS011;9675;51.538;6.728;2023-03-08T11:46:48;0.30;;;0.30;;
19084;SDS011;9675;51.538;6.728;2023-03-08T11:49:40;0.10;;;0.10;;
19084;SDS011;9675;51.538;6.728;2023-03-08T11:52:21;0.20;;;0.20;;
19084;SDS011;9675;51.538;6.728;2023-03-08T11:55:05;0.00;;;0.00;;
19084;SDS011;9675;51.538;6.728;2023-03-08T11:57:55;1.80;;;1.47;;
19084;SDS011;9675;51.538;6.728;2023-03-08T12:00:34;0.00;;;0.00;;
19084;SDS011;9675;51.538;6.728;2023-03-08T12:03:08;0.00;;;0.00;;
19084;SDS011;9675;51.538;6.728;2023-03-08T12:05:42;0.13;;;0.13;;
19084;SDS011;9675;51.538;6.728;2023-03-08T12:08:16;0.13;;;0.13;;
19084;SDS011;9675;51.538;6.728;2023-03-08T12:10:50;0.00;;;0.00;;
19084;SDS011;9675;51.538;6.728;2023-03-08T12:13:27;0.97;;;0.73;;
19084;SDS011;9675;51.538;6.728;2023-03-08T12:16:05;0.00;;;0.00;;
19084;SDS011;9675;51.538;6.728;2023-03-08T12:18:41;0.20;;;0.20;;
19084;SDS011;9675;51.538;6.728;2023-03-08T12:21:20;0.50;;;0.33;;
19084;SDS011;9675;51.538;6.728;2023-03-08T12:24:08;0.00;;;0.00;;
19084;SDS011;9675;51.538;6.728;2023-03-08T12:26:54;0.10;;;0.10;;
19084;SDS011;9675;51.538;6.728;2023-03-08T12:29:32;0.57;;;0.57;;
19084;SDS011;9675;51.538;6.728;2023-03-08T12:32:06;0.27;;;0.27;;
19084;SDS011;9675;51.538;6.728;2023-03-08T12:34:38;0.00;;;0.00;;
19084;SDS011;9675;51.538;6.728;2023-03-08T12:37:20;0.00;;;0.00;;
19084;SDS011;9675;51.538;6.728;2023-03-08T12:39:54;0.10;;;0.10;;
19084;SDS011;9675;51.538;6.728;2023-03-08T12:42:29;0.10;;;0.10;;
19084;SDS011;9675;51.538;6.728;2023-03-08T12:48:23;0.10;;;0.10;;
19084;SDS011;9675;51.538;6.728;2023-03-08T12:50:54;0.03;;;0.03;;
19084;SDS011;9675;51.538;6.728;2023-03-08T12:53:36;5.70;;;2.20;;
19084;SDS011;9675;51.538;6.728;2023-03-08T12:56:20;4.80;;;2.17;;
19084;SDS011;9675;51.538;6.728;2023-03-08T12:58:52;6.70;;;3.27;;
19084;SDS011;9675;51.538;6.728;2023-03-08T13:01:22;5.80;;;2.77;;
19084;SDS011;9675;51.538;6.728;2023-03-08T13:04:04;3.80;;;1.93;;
19084;SDS011;9675;51.538;6.728;2023-03-08T13:06:55;3.27;;;2.03;;
19084;SDS011;9675;51.538;6.728;2023-03-08T13:09:57;1.50;;;1.13;;
19084;SDS011;9675;51.538;6.728;2023-03-08T13:12:35;6.00;;;2.57;;
19084;SDS011;9675;51.538;6.728;2023-03-08T13:15:23;3.07;;;1.17;;
19084;SDS011;9675;51.538;6.728;2023-03-08T13:17:57;3.97;;;2.27;;
19084;SDS011;9675;51.538;6.728;2023-03-08T13:20:45;0.80;;;0.80;;
19084;SDS011;9675;51.538;6.728;2023-03-08T13:23:45;3.47;;;2.03;;
19084;SDS011;9675;51.538;6.728;2023-03-08T13:26:37;4.77;;;2.63;;
19084;SDS011;9675;51.538;6.728;2023-03-08T13:29:26;0.50;;;0.50;;
19084;SDS011;9675;51.538;6.728;2023-03-08T13:31:56;0.87;;;0.50;;
19084;SDS011;9675;51.538;6.728;2023-03-08T13:34:31;6.03;;;3.37;;
19084;SDS011;9675;51.538;6.728;2023-03-08T13:37:01;3.80;;;2.07;;
19084;SDS011;9675;51.538;6.728;2023-03-08T13:39:29;1.47;;;0.70;;
19084;SDS011;9675;51.538;6.728;2023-03-08T13:42:07;3.20;;;2.37;;
19084;SDS011;9675;51.538;6.728;2023-03-08T13:44:36;0.57;;;0.57;;
19084;SDS011;9675;51.538;6.728;2023-03-08T13:47:12;1.23;;;0.80;;
19084;SDS011;9675;51.538;6.728;2023-03-08T13:49:47;3.73;;;2.30;;
19084;SDS011;9675;51.538;6.728;2023-03-08T13:52:18;2.00;;;1.77;;
19084;SDS011;9675;51.538;6.728;2023-03-08T13:54:49;3.57;;;1.20;;
19084;SDS011;9675;51.538;6.728;2023-03-08T13:57:20;4.10;;;1.70;;
19084;SDS011;9675;51.538;6.728;2023-03-08T13:59:51;3.17;;;2.17;;
19084;SDS011;9675;51.538;6.728;2023-03-08T14:02:21;0.43;;;0.37;;
19084;SDS011;9675;51.538;6.728;2023-03-08T14:04:51;2.23;;;0.30;;
19084;SDS011;9675;51.538;6.728;2023-03-08T14:07:22;3.03;;;1.97;;
19084;SDS011;9675;51.538;6.728;2023-03-08T14:09:53;3.17;;;2.30;;
19084;SDS011;9675;51.538;6.728;2023-03-08T14:12:21;3.77;;;2.07;;
19084;SDS011;9675;51.538;6.728;2023-03-08T14:14:52;0.50;;;0.50;;
19084;SDS011;9675;51.538;6.728;2023-03-08T14:17:23;2.47;;;1.73;;
19084;SDS011;9675;51.538;6.728;2023-03-08T14:19:56;2.60;;;1.67;;
19084;SDS011;9675;51.538;6.728;2023-03-08T14:22:28;4.30;;;2.70;;
19084;SDS011;9675;51.538;6.728;2023-03-08T14:24:59;1.13;;;0.73;;
19084;SDS011;9675;51.538;6.728;2023-03-08T14:27:35;4.23;;;2.37;;
19084;SDS011;9675;51.538;6.728;2023-03-08T14:30:09;3.03;;;1.97;;
19084;SDS011;9675;51.538;6.728;2023-03-08T14:32:53;2.97;;;2.10;;
19084;SDS011;9675;51.538;6.728;2023-03-08T14:35:24;4.03;;;2.73;;
19084;SDS011;9675;51.538;6.728;2023-03-08T14:37:56;3.40;;;1.70;;
19084;SDS011;9675;51.538;6.728;2023-03-08T14:40:25;2.30;;;1.83;;
19084;SDS011;9675;51.538;6.728;2023-03-08T14:42:56;3.40;;;1.70;;
19084;SDS011;9675;51.538;6.728;2023-03-08T14:45:30;4.50;;;2.67;;
19084;SDS011;9675;51.538;6.728;2023-03-08T14:48:02;3.37;;;2.20;;
19084;SDS011;9675;51.538;6.728;2023-03-08T14:50:52;1.67;;;1.17;;
19084;SDS011;9675;51.538;6.728;2023-03-08T14:53:26;5.63;;;2.43;;
19084;SDS011;9675;51.538;6.728;2023-03-08T14:55:56;0.13;;;0.13;;
19084;SDS011;9675;51.538;6.728;2023-03-08T14:58:26;1.20;;;0.90;;
19084;SDS011;9675;51.538;6.728;2023-03-08T15:00:57;5.43;;;2.00;;
19084;SDS011;9675;51.538;6.728;2023-03-08T15:03:26;3.70;;;1.70;;
19084;SDS011;9675;51.538;6.728;2023-03-08T15:05:55;2.80;;;1.67;;
19084;SDS011;9675;51.538;6.728;2023-03-08T15:08:25;4.47;;;2.63;;
19084;SDS011;9675;51.538;6.728;2023-03-08T15:10:53;8.37;;;2.83;;
19084;SDS011;9675;51.538;6.728;2023-03-08T15:13:20;2.60;;;1.60;;
19084;SDS011;9675;51.538;6.728;2023-03-08T15:15:48;2.67;;;1.47;;
19084;SDS011;9675;51.538;6.728;2023-03-08T15:18:16;1.80;;;1.13;;
19084;SDS011;9675;51.538;6.728;2023-03-08T15:20:45;10.90;;;4.13;;
19084;SDS011;9675;51.538;6.728;2023-03-08T15:23:16;5.40;;;3.20;;
19084;SDS011;9675;51.538;6.728;2023-03-08T15:25:48;3.03;;;1.83;;
19084;SDS011;9675;51.538;6.728;2023-03-08T15:28:16;5.87;;;3.03;;
19084;SDS011;9675;51.538;6.728;2023-03-08T15:30:46;5.43;;;2.93;;